createdAt,value
2023-03-16T00:00:37.775Z,-23913.62
2023-03-16T00:03:06.177Z,-23913.80
2023-03-16T00:08:13.253Z,-23914.08
2023-03-16T00:10:46.853Z,-23912.92
2023-03-16T00:13:26.977Z,-23912.30
2023-03-16T00:16:04.577Z,-23912.48
2023-03-16T00:18:38.993Z,-23912.86
2023-03-16T00:21:07.382Z,-23913.08
2023-03-16T00:23:36.831Z,-23913.36
2023-03-16T00:26:08.535Z,-23913.71
2023-03-16T00:28:39.504Z,-23913.99
2023-03-16T00:31:09.166Z,-23914.46
2023-03-16T00:33:43.032Z,-23915.18
2023-03-16T00:36:11.726Z,-23916.06
2023-03-16T00:38:49.353Z,-23916.43
2023-03-16T00:41:18.451Z,-23916.88
2023-03-16T00:43:49.046Z,-23917.75
2023-03-16T00:46:17.938Z,-23918.35
2023-03-16T00:48:46.916Z,-23918.54
2023-03-16T00:51:19.029Z,-23918.88
2023-03-16T00:53:47.802Z,-23919.10
2023-03-16T00:56:20.750Z,-23919.66
2023-03-16T00:58:49.516Z,-23919.82
2023-03-16T01:01:19.227Z,-23919.95
2023-03-16T01:03:48.731Z,-23920.27
2023-03-16T01:06:17.704Z,-23920.64
2023-03-16T01:08:45.899Z,-23921.02
2023-03-16T01:11:18.924Z,-23922.15
2023-03-16T01:13:47.453Z,-23922.93
2023-03-16T01:16:16.734Z,-23923.40
2023-03-16T01:18:46.821Z,-23923.93
2023-03-16T01:21:16.173Z,-23924.15
2023-03-16T01:23:44.421Z,-23924.37
2023-03-16T01:26:15.410Z,-23924.71
2023-03-16T01:28:44.542Z,-23925.16
2023-03-16T01:31:14.727Z,-23925.56
2023-03-16T01:33:43.552Z,-23926.03
2023-03-16T01:36:15.561Z,-23926.47
2023-03-16T01:39:03.746Z,-23926.79
2023-03-16T01:41:38.441Z,-23927.20
2023-03-16T01:44:07.272Z,-23927.32
2023-03-16T01:46:35.883Z,-23927.29
2023-03-16T01:49:12.512Z,-23927.00
2023-03-16T01:51:45.237Z,-23926.98
2023-03-16T01:54:28.529Z,-23926.91
2023-03-16T01:56:56.691Z,-23926.73
2023-03-16T01:59:32.508Z,-23927.04
2023-03-16T02:02:01.187Z,-23927.54
2023-03-16T02:04:51.141Z,-23927.60
2023-03-16T02:07:21.658Z,-23928.13
2023-03-16T02:09:52.129Z,-23928.29
2023-03-16T02:12:22.322Z,-23928.39
2023-03-16T02:14:54.646Z,-23928.23
2023-03-16T02:17:28.507Z,-23928.32
2023-03-16T02:20:13.759Z,-23927.75
2023-03-16T02:22:47.086Z,-23927.29
2023-03-16T02:25:16.834Z,-23927.41
2023-03-16T02:28:12.921Z,-23927.19
2023-03-16T02:30:43.360Z,-23927.07
2023-03-16T02:33:12.632Z,-23927.01
2023-03-16T02:35:41.329Z,-23926.85
2023-03-16T02:38:10.120Z,-23926.72
2023-03-16T02:40:43.989Z,-23926.57
2023-03-16T02:43:21.486Z,-23926.63
2023-03-16T02:45:59.937Z,-23926.41
2023-03-16T02:48:38.031Z,-23925.91
2023-03-16T02:51:06.977Z,-23923.59
2023-03-16T02:53:35.480Z,-23920.92
2023-03-16T02:56:09.580Z,-23918.88
2023-03-16T02:58:38.031Z,-23916.25
2023-03-16T03:01:11.832Z,-23913.80
2023-03-16T03:03:40.300Z,-23912.30
2023-03-16T03:06:08.730Z,-23910.92
2023-03-16T03:08:37.894Z,-23909.60
2023-03-16T03:11:06.693Z,-23908.54
2023-03-16T03:13:35.329Z,-23907.06
2023-03-16T03:16:03.757Z,-23904.93
2023-03-16T03:18:34.846Z,-23903.02
2023-03-16T03:21:03.171Z,-23901.10
2023-03-16T03:23:31.739Z,-23899.47
2023-03-16T03:26:00.279Z,-23899.00
2023-03-16T03:28:31.502Z,-23898.91
2023-03-16T03:30:59.959Z,-23898.43
2023-03-16T03:33:28.361Z,-23897.46
2023-03-16T03:35:57.692Z,-23896.58
2023-03-16T03:38:26.760Z,-23895.39
2023-03-16T03:41:01.385Z,-23894.14
2023-03-16T03:43:33.160Z,-23893.25
2023-03-16T03:46:03.477Z,-23892.75
2023-03-16T03:48:33.933Z,-23892.35
2023-03-16T03:51:02.678Z,-23892.07
2023-03-16T03:53:45.689Z,-23889.84
2023-03-16T03:56:24.719Z,-23886.88
2023-03-16T03:58:53.040Z,-23885.19
2023-03-16T04:01:31.149Z,-23884.13
2023-03-16T04:03:59.813Z,-23883.09
2023-03-16T04:06:28.069Z,-23882.43
2023-03-16T04:08:56.695Z,-23882.43
2023-03-16T04:11:28.389Z,-23882.33
2023-03-16T04:13:57.509Z,-23882.21
2023-03-16T04:16:27.151Z,-23881.49
2023-03-16T04:18:56.927Z,-23881.36
2023-03-16T04:21:25.367Z,-23880.99
2023-03-16T04:23:54.550Z,-23880.70
2023-03-16T04:26:25.860Z,-23880.57
2023-03-16T04:28:54.171Z,-23880.32
2023-03-16T04:31:23.508Z,-23879.86
2023-03-16T04:33:54.919Z,-23879.57
2023-03-16T04:36:26.261Z,-23879.54
2023-03-16T04:38:55.262Z,-23879.29
2023-03-16T04:41:24.385Z,-23878.97
2023-03-16T04:44:04.917Z,-23878.94
2023-03-16T04:46:33.257Z,-23878.60
2023-03-16T04:49:02.705Z,-23877.97
2023-03-16T04:51:31.521Z,-23878.10
2023-03-16T04:54:05.362Z,-23877.97
2023-03-16T04:56:41.609Z,-23877.41
2023-03-16T04:59:36.015Z,-23877.09
2023-03-16T05:02:27.337Z,-23877.15
2023-03-16T05:04:55.952Z,-23876.46
2023-03-16T05:07:32.914Z,-23874.96
2023-03-16T05:10:01.689Z,-23873.52
2023-03-16T05:12:31.006Z,-23872.35
2023-03-16T05:15:07.897Z,-23871.85
2023-03-16T05:17:38.834Z,-23871.44
2023-03-16T05:20:09.185Z,-23871.57
2023-03-16T05:22:42.491Z,-23871.13
2023-03-16T05:25:17.714Z,-23869.78
2023-03-16T05:27:52.341Z,-23868.24
2023-03-16T05:30:35.121Z,-23867.11
2023-03-16T05:33:05.396Z,-23865.91
2023-03-16T05:35:38.480Z,-23864.47
2023-03-16T05:38:13.204Z,-23863.40
2023-03-16T05:40:44.176Z,-23861.54
2023-03-16T05:43:21.866Z,-23859.31
2023-03-16T05:45:57.421Z,-23857.94
2023-03-16T05:48:26.701Z,-23856.77
2023-03-16T05:50:56.684Z,-23854.92
2023-03-16T05:53:30.805Z,-23853.22
2023-03-16T05:56:06.014Z,-23851.53
2023-03-16T05:58:35.872Z,-23848.85
2023-03-16T06:01:07.776Z,-23846.28
2023-03-16T06:03:38.483Z,-23844.39
2023-03-16T06:06:08.785Z,-23842.54
2023-03-16T06:08:43.746Z,-23841.44
2023-03-16T06:11:13.275Z,-23840.46
2023-03-16T06:13:41.963Z,-23839.71
2023-03-16T06:16:11.940Z,-23839.33
2023-03-16T06:18:41.456Z,-23838.48
2023-03-16T06:21:10.243Z,-23836.54
2023-03-16T06:23:39.956Z,-23834.74
2023-03-16T06:26:08.763Z,-23832.70
2023-03-16T06:28:37.739Z,-23831.66
2023-03-16T06:31:06.581Z,-23830.88
2023-03-16T06:33:37.943Z,-23830.34
2023-03-16T06:36:06.534Z,-23830.03
2023-03-16T06:38:42.247Z,-23829.61
2023-03-16T06:41:16.754Z,-23829.52
2023-03-16T06:43:46.450Z,-23829.24
2023-03-16T06:46:14.701Z,-23828.48
2023-03-16T06:48:43.362Z,-23827.45
2023-03-16T06:51:11.580Z,-23827.29
2023-03-16T06:53:39.839Z,-23827.20
2023-03-16T06:56:08.073Z,-23827.13
2023-03-16T06:58:39.260Z,-23826.63
2023-03-16T07:01:10.626Z,-23826.09
2023-03-16T07:03:42.082Z,-23825.02
2023-03-16T07:06:17.865Z,-23824.43
2023-03-16T07:08:46.477Z,-23824.55
2023-03-16T07:11:15.550Z,-23824.71
2023-03-16T07:13:44.415Z,-23824.36
2023-03-16T07:16:13.499Z,-23824.90
2023-03-16T07:18:44.995Z,-23825.34
2023-03-16T07:21:15.166Z,-23825.28
2023-03-16T07:23:45.100Z,-23825.59
2023-03-16T07:26:14.094Z,-23826.16
2023-03-16T07:28:50.932Z,-23826.47
2023-03-16T07:31:19.740Z,-23827.13
2023-03-16T07:33:48.289Z,-23828.01
2023-03-16T07:36:22.564Z,-23828.86
2023-03-16T07:38:55.295Z,-23829.18
2023-03-16T07:41:23.683Z,-23829.11
2023-03-16T07:43:53.482Z,-23829.14
2023-03-16T07:46:28.871Z,-23829.49
2023-03-16T07:48:57.052Z,-23830.40
2023-03-16T07:51:25.390Z,-23831.06
2023-03-16T07:53:54.799Z,-23831.82
2023-03-16T07:56:31.615Z,-23832.26
2023-03-16T07:59:12.454Z,-23832.66
2023-03-16T08:01:41.869Z,-23833.04
2023-03-16T08:04:12.492Z,-23833.52
2023-03-16T08:06:43.162Z,-23834.74
2023-03-16T08:09:11.914Z,-23836.03
2023-03-16T08:11:41.796Z,-23836.94
2023-03-16T08:14:10.389Z,-23838.04
2023-03-16T08:16:55.135Z,-23838.98
2023-03-16T08:19:27.568Z,-23839.83
2023-03-16T08:22:01.523Z,-23840.27
2023-03-16T08:24:33.920Z,-23840.71
2023-03-16T08:27:02.453Z,-23841.15
2023-03-16T08:29:34.666Z,-23841.88
2023-03-16T08:32:04.184Z,-23842.04
2023-03-16T08:34:40.140Z,-23842.41
2023-03-16T08:37:09.975Z,-23842.92
2023-03-16T08:39:42.196Z,-23842.86
2023-03-16T08:42:15.404Z,-23843.04
2023-03-16T08:44:51.011Z,-23843.32
2023-03-16T08:47:19.576Z,-23843.64
2023-03-16T08:49:48.149Z,-23843.98
2023-03-16T08:52:17.150Z,-23844.23
2023-03-16T08:55:01.490Z,-23844.52
2023-03-16T08:57:33.504Z,-23844.99
2023-03-16T09:00:01.934Z,-23845.71
2023-03-16T09:02:30.641Z,-23847.06
2023-03-16T09:04:59.208Z,-23848.07
2023-03-16T09:07:28.400Z,-23848.57
2023-03-16T09:10:05.655Z,-23849.14
2023-03-16T09:12:35.727Z,-23849.92
2023-03-16T09:15:04.938Z,-23850.14
2023-03-16T09:17:37.459Z,-23850.74
2023-03-16T09:20:21.765Z,-23851.96
2023-03-16T09:22:51.635Z,-23853.13
2023-03-16T09:25:20.686Z,-23853.54
2023-03-16T09:27:49.054Z,-23853.60
2023-03-16T09:30:19.165Z,-23854.45
2023-03-16T09:32:49.177Z,-23855.74
2023-03-16T09:35:19.765Z,-23856.33
2023-03-16T09:38:05.289Z,-23857.43
2023-03-16T09:40:36.292Z,-23858.94
2023-03-16T09:43:14.620Z,-23859.69
2023-03-16T09:45:59.995Z,-23860.35
2023-03-16T09:48:35.734Z,-23860.51
2023-03-16T09:51:06.553Z,-23861.14
2023-03-16T09:53:36.775Z,-23862.21
2023-03-16T09:56:06.107Z,-23863.71
2023-03-16T09:58:34.538Z,-23864.09
2023-03-16T10:01:16.000Z,-23864.63
2023-03-16T10:03:51.087Z,-23865.88
2023-03-16T10:06:19.375Z,-23867.54
2023-03-16T10:08:59.655Z,-23868.30
2023-03-16T10:11:38.496Z,-23868.39
2023-03-16T10:14:36.885Z,-23868.24
2023-03-16T10:17:07.020Z,-23867.83
2023-03-16T10:19:42.386Z,-23867.48
2023-03-16T10:22:34.935Z,-23867.61
2023-03-16T10:25:07.016Z,-23867.39
2023-03-16T10:27:39.291Z,-23867.58
2023-03-16T10:30:18.992Z,-23866.48
2023-03-16T10:32:48.518Z,-23865.35
2023-03-16T10:35:39.243Z,-23865.79
2023-03-16T10:38:29.149Z,-23866.64
2023-03-16T10:40:58.093Z,-23867.58
2023-03-16T10:43:26.748Z,-23868.21
2023-03-16T10:45:59.761Z,-23868.61
2023-03-16T10:48:28.741Z,-23868.87
2023-03-16T10:50:58.568Z,-23868.89
2023-03-16T10:53:30.177Z,-23869.15
2023-03-16T10:55:59.616Z,-23870.21
2023-03-16T10:58:33.858Z,-23871.00
2023-03-16T11:01:29.154Z,-23869.90
2023-03-16T11:03:59.271Z,-23868.24
2023-03-16T11:06:30.938Z,-23867.77
2023-03-16T11:09:08.818Z,-23867.20
2023-03-16T11:11:37.264Z,-23866.92
2023-03-16T11:14:12.942Z,-23866.92
2023-03-16T11:17:09.489Z,-23867.26
2023-03-16T11:19:57.891Z,-23867.04
2023-03-16T11:22:27.140Z,-23866.10
2023-03-16T11:25:13.793Z,-23865.32
2023-03-16T11:27:42.108Z,-23865.85
2023-03-16T11:30:24.738Z,-23866.86
2023-03-16T11:32:54.328Z,-23867.20
2023-03-16T11:35:39.917Z,-23867.55
2023-03-16T11:38:36.346Z,-23867.73
2023-03-16T11:41:06.010Z,-23867.77
2023-03-16T11:43:42.610Z,-23867.68
2023-03-16T11:46:20.874Z,-23867.42
2023-03-16T11:49:01.685Z,-23867.39
2023-03-16T11:51:54.304Z,-23867.26
2023-03-16T11:54:44.861Z,-23866.92
2023-03-16T11:57:38.968Z,-23866.54
2023-03-16T12:00:20.626Z,-23866.70
2023-03-16T12:02:55.651Z,-23867.20
2023-03-16T12:05:46.063Z,-23867.92
2023-03-16T12:08:27.572Z,-23869.12
2023-03-16T12:11:05.737Z,-23869.65
2023-03-16T12:14:10.505Z,-23870.31
2023-03-16T12:16:52.309Z,-23871.53
2023-03-16T12:19:49.259Z,-23872.13
2023-03-16T12:22:37.750Z,-23872.38
2023-03-16T12:25:23.846Z,-23872.79
2023-03-16T12:27:56.301Z,-23872.61
2023-03-16T12:30:37.154Z,-23872.76
2023-03-16T12:33:18.545Z,-23873.14
2023-03-16T12:35:55.843Z,-23872.29
2023-03-16T12:38:37.548Z,-23871.22
2023-03-16T12:41:06.029Z,-23871.22
2023-03-16T12:44:18.133Z,-23871.25
2023-03-16T12:46:56.695Z,-23871.19
2023-03-16T12:49:25.105Z,-23871.00
2023-03-16T12:51:59.846Z,-23870.88
2023-03-16T12:54:28.499Z,-23870.66
2023-03-16T12:57:08.151Z,-23870.28
2023-03-16T12:59:45.800Z,-23870.31
2023-03-16T13:02:19.805Z,-23869.96
2023-03-16T13:04:51.902Z,-23869.21
2023-03-16T13:07:23.036Z,-23869.05
2023-03-16T13:09:55.214Z,-23869.90
2023-03-16T13:12:32.774Z,-23870.15
2023-03-16T13:15:02.276Z,-23870.25
2023-03-16T13:17:34.454Z,-23870.28
2023-03-16T13:20:30.258Z,-23870.91
2023-03-16T13:23:24.260Z,-23869.94
2023-03-16T13:26:16.229Z,-23868.61
2023-03-16T13:28:46.193Z,-23868.36
2023-03-16T13:31:36.146Z,-23868.52
2023-03-16T13:34:07.050Z,-23868.05
2023-03-16T13:36:38.246Z,-23867.27
2023-03-16T13:39:18.822Z,-23867.01
2023-03-16T13:42:04.984Z,-23866.57
2023-03-16T13:44:33.330Z,-23866.36
2023-03-16T13:47:05.357Z,-23866.23
2023-03-16T13:50:03.591Z,-23866.61
2023-03-16T13:52:33.570Z,-23866.07
2023-03-16T13:55:17.598Z,-23865.00
2023-03-16T13:57:45.740Z,-23864.94
2023-03-16T14:00:39.225Z,-23864.34
2023-03-16T14:03:16.414Z,-23864.28
2023-03-16T14:05:47.920Z,-23863.94
2023-03-16T14:08:21.056Z,-23862.96
2023-03-16T14:10:49.669Z,-23862.49
2023-03-16T14:13:29.757Z,-23861.70
2023-03-16T14:16:03.461Z,-23860.92
2023-03-16T14:18:46.169Z,-23860.20
2023-03-16T14:21:19.987Z,-23859.72
2023-03-16T14:23:51.763Z,-23859.28
2023-03-16T14:26:27.320Z,-23858.84
2023-03-16T14:29:02.887Z,-23858.66
2023-03-16T14:31:36.295Z,-23858.56
2023-03-16T14:34:08.880Z,-23858.34
2023-03-16T14:36:38.959Z,-23858.00
2023-03-16T14:39:14.280Z,-23857.68
2023-03-16T14:41:43.658Z,-23856.99
2023-03-16T14:44:31.103Z,-23856.24
2023-03-16T14:47:00.389Z,-23854.54
2023-03-16T14:49:30.418Z,-23853.35
2023-03-16T14:52:09.537Z,-23852.00
2023-03-16T14:54:40.869Z,-23851.24
2023-03-16T14:57:17.027Z,-23851.28
2023-03-16T14:59:46.031Z,-23850.30
2023-03-16T15:02:31.017Z,-23849.14
2023-03-16T15:05:00.445Z,-23847.81
2023-03-16T15:07:36.323Z,-23847.16
2023-03-16T15:10:09.990Z,-23846.50
2023-03-16T15:12:38.693Z,-23845.84
2023-03-16T15:15:18.928Z,-23845.43
2023-03-16T15:17:48.427Z,-23844.14
2023-03-16T15:20:18.979Z,-23843.73
2023-03-16T15:22:47.218Z,-23843.39
2023-03-16T15:25:45.134Z,-23842.88
2023-03-16T15:28:14.609Z,-23841.91
2023-03-16T15:30:56.301Z,-23841.88
2023-03-16T15:33:25.014Z,-23841.85
2023-03-16T15:35:55.937Z,-23841.53
2023-03-16T15:38:25.253Z,-23841.53
2023-03-16T15:40:55.537Z,-23841.41
2023-03-16T15:43:31.339Z,-23840.62
2023-03-16T15:46:00.061Z,-23839.87
2023-03-16T15:48:28.673Z,-23839.90
2023-03-16T15:51:13.665Z,-23839.39
2023-03-16T15:53:44.197Z,-23838.80
2023-03-16T15:56:17.560Z,-23838.26
2023-03-16T15:58:49.305Z,-23838.07
2023-03-16T16:01:22.023Z,-23837.60
2023-03-16T16:03:54.063Z,-23836.44
2023-03-16T16:06:22.834Z,-23835.56
2023-03-16T16:08:52.990Z,-23835.09
2023-03-16T16:11:26.569Z,-23835.15
2023-03-16T16:13:57.705Z,-23834.55
2023-03-16T16:16:29.955Z,-23834.08
2023-03-16T16:18:58.395Z,-23834.08
2023-03-16T16:21:33.888Z,-23834.30
2023-03-16T16:24:03.189Z,-23833.96
2023-03-16T16:26:50.549Z,-23833.17
2023-03-16T16:29:23.150Z,-23832.57
2023-03-16T16:31:54.500Z,-23832.51
2023-03-16T16:34:25.765Z,-23832.60
2023-03-16T16:36:55.256Z,-23832.70
2023-03-16T16:39:23.495Z,-23832.45
2023-03-16T16:41:57.210Z,-23831.66
2023-03-16T16:44:27.759Z,-23830.68
2023-03-16T16:46:59.874Z,-23830.09
2023-03-16T16:49:30.625Z,-23830.25
2023-03-16T16:51:58.967Z,-23830.46
2023-03-16T16:54:31.312Z,-23830.56
2023-03-16T16:57:00.248Z,-23830.40
2023-03-16T16:59:31.455Z,-23830.09
2023-03-16T17:02:00.915Z,-23829.87
2023-03-16T17:04:32.143Z,-23829.96
2023-03-16T17:07:03.747Z,-23830.65
2023-03-16T17:09:35.708Z,-23831.09
2023-03-16T17:12:04.323Z,-23831.50
2023-03-16T17:14:33.101Z,-23831.16
2023-03-16T17:17:06.493Z,-23830.37
2023-03-16T17:19:36.511Z,-23829.93
2023-03-16T17:22:06.663Z,-23829.49
2023-03-16T17:24:35.804Z,-23829.46
2023-03-16T17:27:05.026Z,-23829.93
2023-03-16T17:29:34.091Z,-23830.28
2023-03-16T17:32:07.370Z,-23830.84
2023-03-16T17:34:35.648Z,-23831.53
2023-03-16T17:37:08.422Z,-23832.13
2023-03-16T17:39:39.759Z,-23831.75
2023-03-16T17:42:13.405Z,-23831.41
2023-03-16T17:44:47.182Z,-23831.03
2023-03-16T17:47:21.065Z,-23830.81
2023-03-16T17:49:52.075Z,-23830.87
2023-03-16T17:52:25.508Z,-23830.25
2023-03-16T17:54:53.954Z,-23829.93
2023-03-16T17:57:27.553Z,-23829.96
2023-03-16T17:59:56.235Z,-23830.43
2023-03-16T18:02:36.498Z,-23830.37
2023-03-16T18:05:08.858Z,-23830.15
2023-03-16T18:07:38.052Z,-23830.12
2023-03-16T18:10:28.815Z,-23830.09
2023-03-16T18:13:00.179Z,-23829.96
2023-03-16T18:15:31.964Z,-23829.55
2023-03-16T18:18:01.168Z,-23829.33
2023-03-16T18:20:35.380Z,-23829.14
2023-03-16T18:23:21.106Z,-23829.05
2023-03-16T18:25:51.142Z,-23829.14
2023-03-16T18:28:22.395Z,-23829.05
2023-03-16T18:30:54.509Z,-23828.58
2023-03-16T18:33:32.742Z,-23828.23
2023-03-16T18:36:06.012Z,-23828.30
2023-03-16T18:38:36.308Z,-23828.33
2023-03-16T18:41:22.911Z,-23828.14
2023-03-16T18:43:52.232Z,-23828.01
2023-03-16T18:46:25.875Z,-23827.98
2023-03-16T18:48:56.027Z,-23827.88
2023-03-16T18:51:27.622Z,-23827.82
2023-03-16T18:53:55.820Z,-23827.41
2023-03-16T18:56:26.999Z,-23826.88
2023-03-16T18:58:56.292Z,-23826.66
2023-03-16T19:01:31.845Z,-23826.50
2023-03-16T19:04:00.847Z,-23826.06
2023-03-16T19:06:31.580Z,-23825.46
2023-03-16T19:09:36.059Z,-23824.52
2023-03-16T19:12:05.577Z,-23823.80
2023-03-16T19:14:35.039Z,-23822.98
2023-03-16T19:17:05.408Z,-23822.04
2023-03-16T19:19:33.562Z,-23821.13
2023-03-16T19:22:09.999Z,-23820.09
2023-03-16T19:24:48.351Z,-23819.58
2023-03-16T19:27:21.756Z,-23818.42
2023-03-16T19:29:52.338Z,-23817.25
2023-03-16T19:32:21.660Z,-23816.41
2023-03-16T19:34:52.581Z,-23815.74
2023-03-16T19:37:23.899Z,-23815.08
2023-03-16T19:39:52.239Z,-23814.52
2023-03-16T19:42:27.646Z,-23814.05
2023-03-16T19:44:56.035Z,-23813.32
2023-03-16T19:47:34.060Z,-23812.72
2023-03-16T19:50:02.801Z,-23811.91
2023-03-16T19:52:32.850Z,-23811.72
2023-03-16T19:55:01.765Z,-23811.31
2023-03-16T19:57:31.676Z,-23810.90
2023-03-16T20:00:06.802Z,-23810.68
2023-03-16T20:02:40.521Z,-23810.84
2023-03-16T20:05:18.322Z,-23810.77
2023-03-16T20:07:47.967Z,-23810.68
2023-03-16T20:10:18.867Z,-23810.71
2023-03-16T20:12:47.779Z,-23810.30
2023-03-16T20:15:18.680Z,-23809.61
2023-03-16T20:17:47.717Z,-23809.04
2023-03-16T20:20:28.670Z,-23808.38
2023-03-16T20:22:59.753Z,-23808.07
2023-03-16T20:25:32.368Z,-23807.53
2023-03-16T20:28:02.288Z,-23807.41
2023-03-16T20:30:31.102Z,-23806.59
2023-03-16T20:33:00.185Z,-23805.64
2023-03-16T20:35:29.591Z,-23804.70
2023-03-16T20:37:57.911Z,-23803.69
2023-03-16T20:40:26.360Z,-23802.59
2023-03-16T20:42:55.416Z,-23802.34
2023-03-16T20:45:28.938Z,-23802.34
2023-03-16T20:47:57.732Z,-23802.46
2023-03-16T20:50:28.350Z,-23802.50
2023-03-16T20:52:56.924Z,-23801.83
2023-03-16T20:55:27.193Z,-23801.30
2023-03-16T20:57:57.528Z,-23800.70
2023-03-16T21:00:39.240Z,-23800.45
2023-03-16T21:03:22.471Z,-23799.98
2023-03-16T21:05:53.867Z,-23799.79
2023-03-16T21:08:22.279Z,-23799.70
2023-03-16T21:10:52.723Z,-23799.29
2023-03-16T21:13:31.568Z,-23798.72
2023-03-16T21:16:02.449Z,-23798.34
2023-03-16T21:18:35.256Z,-23798.31
2023-03-16T21:21:04.175Z,-23798.15
2023-03-16T21:23:33.680Z,-23797.96
2023-03-16T21:26:04.050Z,-23797.84
2023-03-16T21:28:33.325Z,-23797.24
2023-03-16T21:31:03.145Z,-23796.55
2023-03-16T21:33:39.390Z,-23795.95
2023-03-16T21:36:13.691Z,-23795.57
2023-03-16T21:38:43.120Z,-23795.13
2023-03-16T21:41:12.512Z,-23794.75
2023-03-16T21:43:46.102Z,-23794.63
2023-03-16T21:46:29.299Z,-23794.53
2023-03-16T21:48:59.082Z,-23794.59
2023-03-16T21:51:33.199Z,-23794.31
2023-03-16T21:54:02.350Z,-23794.06
2023-03-16T21:56:51.465Z,-23793.59
2023-03-16T21:59:23.906Z,-23793.12
2023-03-16T22:02:01.964Z,-23793.08
2023-03-16T22:04:33.410Z,-23793.34
2023-03-16T22:07:03.031Z,-23793.49
2023-03-16T22:09:33.398Z,-23792.86
2023-03-16T22:12:02.595Z,-23791.86
2023-03-16T22:14:32.944Z,-23791.73
2023-03-16T22:17:03.292Z,-23791.98
2023-03-16T22:19:32.676Z,-23792.02
2023-03-16T22:22:04.260Z,-23791.76
2023-03-16T22:24:37.118Z,-23791.29
2023-03-16T22:27:14.854Z,-23791.13
2023-03-16T22:29:45.354Z,-23790.88
2023-03-16T22:32:19.954Z,-23790.69
2023-03-16T22:34:58.461Z,-23790.82
2023-03-16T22:37:28.278Z,-23791.48
2023-03-16T22:39:58.629Z,-23791.51
2023-03-16T22:42:37.874Z,-23791.35
2023-03-16T22:45:23.178Z,-23791.54
2023-03-16T22:47:57.549Z,-23791.70
2023-03-16T22:50:27.640Z,-23791.51
2023-03-16T22:52:58.485Z,-23791.13
2023-03-16T22:55:29.618Z,-23790.60
2023-03-16T22:58:04.362Z,-23790.19
2023-03-16T23:00:32.964Z,-23789.90
2023-03-16T23:03:01.299Z,-23789.56
2023-03-16T23:05:31.850Z,-23789.50
2023-03-16T23:08:01.368Z,-23790.06
2023-03-16T23:10:29.868Z,-23790.47
2023-03-16T23:12:59.849Z,-23790.60
2023-03-16T23:15:29.900Z,-23790.63
2023-03-16T23:17:58.367Z,-23791.04
2023-03-16T23:20:32.822Z,-23791.07
2023-03-16T23:23:01.781Z,-23790.95
2023-03-16T23:25:30.100Z,-23790.98
2023-03-16T23:28:02.829Z,-23791.01
2023-03-16T23:30:31.661Z,-23790.94
2023-03-16T23:33:01.077Z,-23790.91
2023-03-16T23:35:30.330Z,-23791.01
2023-03-16T23:38:00.703Z,-23790.85
2023-03-16T23:40:29.867Z,-23790.35
2023-03-16T23:42:58.703Z,-23790.19
2023-03-16T23:45:43.380Z,-23789.81
2023-03-16T23:48:14.255Z,-23790.00
2023-03-16T23:50:43.397Z,-23789.90
2023-03-16T23:53:13.583Z,-23789.68
2023-03-16T23:55:43.473Z,-23789.59
2023-03-16T23:58:13.959Z,-23789.65
